Time;durP1;ratioP1;P1;durP2;ratioP2;P2;SDS_P1;SDS_P2;PMS_P1;PMS_P2;Temp;Humidity;BMP_temperature;BMP_pressure;BME280_temperature;BME280_humidity;BME280_pressure;Samples;Min_cycle;Max_cycle;Signal;HPM_P1;HPM_P2
2023/10/06 00:01:15;;;;;;;5.73;2.20;;;8.80;99.90;;;8.01;100.00;102202.47;4207251;28;20069;-80
2023/10/06 00:03:16;;;;;;;4.40;2.40;;;8.80;99.90;;;7.97;100.00;102203.63;4188196;28;20025;-80
2023/10/06 00:05:17;;;;;;;4.53;2.25;;;8.80;99.90;;;7.92;100.00;102196.97;4198937;28;20108;-80
2023/10/06 00:07:20;;;;;;;3.00;1.80;;;8.70;99.90;;;7.91;100.00;102205.84;4187138;28;20029;-80
2023/10/06 00:09:28;;;;;;;6.65;2.20;;;8.70;99.90;;;7.86;100.00;102202.66;4188236;28;20029;-80
2023/10/06 00:11:31;;;;;;;5.90;1.90;;;8.70;99.90;;;7.85;100.00;102195.72;4186792;28;20040;-80
2023/10/06 00:13:33;;;;;;;6.87;2.30;;;8.60;99.90;;;7.85;100.00;102199.22;4186870;28;20043;-80
2023/10/06 00:15:40;;;;;;;6.07;2.78;;;8.60;99.90;;;7.89;100.00;102200.66;4193508;28;20467;-80
2023/10/06 00:17:48;;;;;;;6.22;2.28;;;8.70;99.90;;;7.91;100.00;102205.84;4188044;28;20104;-80
2023/10/06 00:19:51;;;;;;;7.05;2.20;;;8.60;99.90;;;7.95;100.00;102199.41;4187759;28;20029;-80
2023/10/06 00:24:10;;;;;;;4.68;2.33;;;8.70;99.90;;;7.90;100.00;102209.38;4190315;28;20025;-80
2023/10/06 00:26:15;;;;;;;5.10;2.10;;;8.70;99.90;;;7.88;100.00;102206.03;4190308;28;20025;-80
2023/10/06 00:28:20;;;;;;;5.65;2.65;;;8.70;99.90;;;7.84;100.00;102209.81;4188213;28;20062;-80
2023/10/06 00:30:20;;;;;;;5.50;2.63;;;8.60;99.90;;;7.84;100.00;102204.56;4187887;28;20477;-80
2023/10/06 00:32:24;;;;;;;5.00;2.65;;;8.60;99.90;;;7.84;100.00;102207.19;4180850;28;20021;-81
2023/10/06 00:34:30;;;;;;;7.60;2.65;;;8.60;99.90;;;7.84;100.00;102208.03;4192529;28;20539;-80
2023/10/06 00:36:31;;;;;;;5.40;2.17;;;8.70;99.90;;;7.87;100.00;102214.84;4201671;28;20036;-79
2023/10/06 00:38:32;;;;;;;4.25;2.53;;;8.60;99.90;;;7.88;100.00;102214.75;4204231;28;20399;-80
2023/10/06 00:40:35;;;;;;;5.70;2.45;;;8.70;99.90;;;7.89;100.00;102216.44;4202896;28;20055;-80
2023/10/06 00:42:37;;;;;;;5.57;2.67;;;8.60;99.90;;;7.91;100.00;102216.34;4204313;28;20021;-80
2023/10/06 00:44:39;;;;;;;5.55;2.30;;;8.60;99.90;;;7.91;100.00;102224.22;4198918;28;20021;-80
2023/10/06 00:46:43;;;;;;;4.97;2.47;;;8.70;99.90;;;7.91;100.00;102216.34;4187353;28;20369;-80
2023/10/06 00:48:52;;;;;;;4.53;2.65;;;8.70;99.90;;;7.88;100.00;102216.53;4187528;28;20400;-80
2023/10/06 00:50:57;;;;;;;8.43;3.40;;;8.70;99.90;;;7.86;100.00;102207.91;4186277;28;20041;-80
2023/10/06 00:52:57;;;;;;;;;;;8.60;99.90;;;7.75;100.00;102211.25;4188017;28;20028;-80
2023/10/06 00:54:58;;;;;;;3.90;2.38;;;8.60;99.90;;;7.77;100.00;102210.22;4196359;28;19962;-80
2023/10/06 00:57:08;;;;;;;6.93;2.70;;;8.60;99.90;;;7.74;100.00;102214.81;4190673;28;20040;-80
2023/10/06 00:59:11;;;;;;;6.72;2.40;;;8.60;99.90;;;7.73;100.00;102221.88;4186445;28;20174;-81
2023/10/06 01:01:12;;;;;;;6.13;2.60;;;8.50;99.90;;;7.74;100.00;102220.06;4187112;28;20021;-80
2023/10/06 01:03:16;;;;;;;5.13;2.75;;;8.60;99.90;;;7.72;100.00;102220.19;4187290;28;20112;-80
2023/10/06 01:05:19;;;;;;;5.85;2.58;;;8.50;99.90;;;7.68;100.00;102216.06;4196598;28;20035;-80
2023/10/06 01:07:24;;;;;;;6.97;2.45;;;8.50;99.90;;;7.65;100.00;102215.44;4202631;28;20524;-80
2023/10/06 01:09:33;;;;;;;4.90;2.60;;;8.50;99.90;;;7.64;100.00;102216.41;4186168;28;20032;-80
2023/10/06 01:11:46;;;;;;;6.75;2.75;;;8.50;99.90;;;7.64;100.00;102213.75;4186881;28;20064;-80
2023/10/06 01:13:55;;;;;;;6.13;2.47;;;8.40;99.90;;;7.63;100.00;102210.28;4190690;28;20404;-80
2023/10/06 01:15:56;;;;;;;6.35;2.10;;;8.40;99.90;;;7.60;100.00;102213.13;4186962;28;20033;-80
2023/10/06 01:17:58;;;;;;;4.63;2.55;;;8.40;99.90;;;7.59;100.00;102219.31;4215187;28;20078;-81
2023/10/06 01:19:59;;;;;;;5.38;2.45;;;8.40;99.90;;;7.60;100.00;102226.25;4203474;28;20032;-80
2023/10/06 01:24:25;;;;;;;6.30;2.63;;;8.40;99.90;;;7.58;100.00;102209.75;4216858;28;20153;-80
2023/10/06 01:26:25;;;;;;;5.25;2.22;;;8.40;99.90;;;7.59;100.00;102216.69;4186644;28;20044;-81
2023/10/06 01:28:26;;;;;;;6.80;2.65;;;8.40;99.90;;;7.58;100.00;102212.38;4187125;28;20025;-80
2023/10/06 01:30:27;;;;;;;5.75;2.70;;;8.30;99.90;;;7.59;100.00;102210.59;4187005;28;20029;-81
2023/10/06 01:32:28;;;;;;;5.85;2.40;;;8.40;99.90;;;7.60;100.00;102210.50;4185456;28;20444;-80
2023/10/06 01:34:34;;;;;;;4.47;2.22;;;8.40;99.90;;;7.61;100.00;102217.44;4188900;28;20032;-80
2023/10/06 01:36:36;;;;;;;3.88;2.13;;;8.40;99.90;;;7.62;100.00;102210.38;4196957;28;20075;-80
2023/10/06 01:38:36;;;;;;;4.07;1.80;;;8.40;99.90;;;7.56;100.00;102202.91;4211183;28;20023;-80
2023/10/06 01:40:44;;;;;;;5.40;2.47;;;8.40;99.90;;;7.52;100.00;102194.41;4185362;28;20048;-80
2023/10/06 01:42:45;;;;;;;6.40;2.55;;;8.40;99.90;;;7.54;100.00;102202.16;4186833;28;20074;-80
2023/10/06 01:44:46;;;;;;;4.82;2.38;;;8.30;99.90;;;7.52;100.00;102199.66;4187269;28;20548;-80
2023/10/06 01:46:53;;;;;;;3.22;2.20;;;8.30;99.90;;;7.47;100.00;102187.75;4186505;28;20032;-80
2023/10/06 01:48:53;;;;;;;8.10;2.85;;;8.30;99.90;;;7.47;100.00;102196.47;4200685;28;20101;-80
2023/10/06 01:50:55;;;;;;;6.03;2.45;;;8.30;99.90;;;7.44;100.00;102188.81;4186711;28;20029;-80
2023/10/06 01:52:56;;;;;;;4.82;2.50;;;8.30;99.90;;;7.38;100.00;102186.56;4186667;28;20502;-80
2023/10/06 01:55:03;;;;;;;5.95;2.65;;;8.20;99.90;;;7.37;100.00;102194.56;4193719;28;20040;-80
2023/10/06 01:57:06;;;;;;;7.90;2.40;;;8.20;99.90;;;7.33;100.00;102193.91;4189088;28;20033;-81
2023/10/06 01:59:07;;;;;;;5.88;2.30;;;8.20;99.90;;;7.30;100.00;102193.28;4186557;28;20033;-80
2023/10/06 02:01:09;;;;;;;6.35;2.35;;;8.10;99.90;;;7.26;100.00;102182.13;4185150;28;20052;-80
2023/10/06 02:03:10;;;;;;;4.82;2.45;;;8.10;99.90;;;7.28;100.00;102185.50;4197272;28;20023;-81
2023/10/06 02:05:12;;;;;;;8.23;2.75;;;8.10;99.90;;;7.28;100.00;102185.50;4197130;28;20020;-80
2023/10/06 02:07:13;;;;;;;7.43;2.60;;;8.10;99.90;;;7.26;100.00;102182.13;4186539;28;20024;-81
2023/10/06 02:09:25;;;;;;;5.18;2.78;;;8.10;99.90;;;7.22;100.00;102180.66;4186440;28;20082;-80
2023/10/06 02:11:30;;;;;;;5.53;2.88;;;8.00;99.90;;;7.20;100.00;102174.66;4185158;28;20067;-80
2023/10/06 02:13:31;;;;;;;6.82;2.22;;;8.00;99.90;;;7.15;100.00;102168.88;4201430;28;20151;-80
2023/10/06 02:15:33;;;;;;;4.72;2.70;;;8.00;99.90;;;7.22;100.00;102165.75;4192316;28;20028;-81
2023/10/06 02:17:34;;;;;;;5.22;2.53;;;8.00;99.90;;;7.22;100.00;102173.63;4195117;28;20035;-80
2023/10/06 02:19:37;;;;;;;5.13;2.10;;;8.00;99.90;;;7.25;100.00;102169.97;4201100;28;20067;-80
2023/10/06 02:21:46;;;;;;;6.93;2.22;;;8.00;99.90;;;7.20;100.00;102161.53;4199175;28;20027;-81
2023/10/06 02:23:49;;;;;;;6.68;2.50;;;8.10;99.90;;;7.22;100.00;102173.63;4200814;28;20505;-80
2023/10/06 02:25:51;;;;;;;6.70;2.87;;;8.00;99.90;;;7.23;100.00;102174.44;4192214;28;20451;-80
2023/10/06 02:27:52;;;;;;;4.60;2.28;;;8.10;99.90;;;7.19;100.00;102159.88;4185919;28;20024;-80
2023/10/06 02:29:56;;;;;;;6.70;2.13;;;8.10;99.90;;;7.21;100.00;102169.31;4186263;28;20059;-80
2023/10/06 02:32:01;;;;;;;6.53;2.60;;;8.00;99.90;;;7.20;100.00;102166.78;4185863;28;20067;-80
2023/10/06 02:34:04;;;;;;;;;;;8.00;99.90;;;7.14;100.00;102167.16;4186384;28;20511;-80
2023/10/06 02:36:17;;;;;;;3.80;1.95;;;8.00;99.90;;;7.14;100.00;102167.16;4198814;28;19908;-80
2023/10/06 02:38:20;;;;;;;6.77;2.37;;;8.00;99.90;;;7.14;100.00;102169.78;4184915;28;20122;-80
2023/10/06 02:40:29;;;;;;;3.70;2.25;;;8.00;99.90;;;7.17;100.00;102174.84;4185762;28;20291;-80
2023/10/06 02:42:33;;;;;;;3.45;1.92;;;8.00;99.90;;;7.19;100.00;102172.97;4184516;28;20032;-80
2023/10/06 02:44:38;;;;;;;5.97;2.47;;;8.00;99.90;;;7.15;100.00;102166.25;4172688;28;20040;-80
2023/10/06 02:46:39;;;;;;;5.43;2.22;;;8.00;99.90;;;7.17;100.00;102174.84;4200960;28;20428;-80
2023/10/06 02:48:48;;;;;;;6.47;2.53;;;8.00;99.90;;;7.17;100.00;102172.22;4202229;28;20028;-80
2023/10/06 02:50:55;;;;;;;5.88;2.55;;;8.00;99.90;;;7.15;100.00;102166.25;4202110;28;20568;-80
2023/10/06 02:52:55;;;;;;;4.15;2.40;;;8.00;99.90;;;7.19;100.00;102165.97;4201124;28;20048;-81
2023/10/06 02:55:19;;;;;;;3.67;1.98;;;8.00;99.90;;;7.17;100.00;102165.19;4202128;28;20021;-81
2023/10/06 02:57:20;;;;;;;4.20;2.28;;;8.00;99.90;;;7.15;100.00;102169.72;4201646;28;20041;-80
2023/10/06 02:59:25;;;;;;;2.75;1.95;;;8.00;99.90;;;7.13;100.00;102168.13;4202207;28;20029;-80
2023/10/06 03:01:26;;;;;;;4.10;2.60;;;8.00;99.90;;;7.13;100.00;102161.09;4200756;28;20028;-80
2023/10/06 03:03:27;;;;;;;5.28;2.38;;;7.90;99.90;;;7.15;100.00;102163.63;4202083;28;20499;-80
2023/10/06 03:05:33;;;;;;;4.70;2.78;;;7.90;99.90;;;7.14;100.00;102159.28;4201940;28;20536;-81
2023/10/06 03:07:34;;;;;;;4.20;2.58;;;7.90;99.90;;;7.16;100.00;102163.53;4200982;28;20149;-80
2023/10/06 03:09:38;;;;;;;3.92;2.30;;;7.90;99.90;;;7.14;100.00;102167.16;4201968;28;20511;-80
2023/10/06 03:11:39;;;;;;;4.32;2.35;;;8.00;99.90;;;7.08;100.00;102159.69;4201954;28;20503;-81
2023/10/06 03:13:47;;;;;;;5.32;2.45;;;7.90;99.90;;;7.08;100.00;102168.41;4200812;28;20029;-81
2023/10/06 03:15:48;;;;;;;7.72;2.67;;;7.90;99.90;;;7.10;100.00;102157.84;4193706;28;20149;-80
2023/10/06 03:17:49;;;;;;;5.45;3.05;;;7.90;99.90;;;7.09;100.00;102158.75;4188669;28;20050;-80
2023/10/06 03:20:11;;;;;;;4.78;2.70;;;7.90;99.90;;;7.06;100.00;102169.47;4187282;28;20032;-80
2023/10/06 03:22:13;;;;;;;5.18;2.42;;;7.90;99.90;;;6.99;100.00;102165.56;4185315;28;20033;-81
2023/10/06 03:24:25;;;;;;;6.95;2.47;;;7.80;99.90;;;6.91;100.00;102166.03;4185328;28;20388;-80
2023/10/06 03:26:34;;;;;;;7.18;2.20;;;7.80;99.90;;;6.87;100.00;102171.59;4183867;28;20025;-80
2023/10/06 03:28:38;;;;;;;7.30;2.65;;;7.70;99.90;;;6.85;100.00;102165.56;4185447;28;20048;-80
2023/10/06 03:30:41;;;;;;;4.60;2.47;;;7.70;99.90;;;6.81;100.00;102159.69;4184955;28;20025;-81
2023/10/06 03:32:43;;;;;;;5.05;2.72;;;7.70;99.90;;;6.84;100.00;102163.91;4183902;28;20111;-81
2023/10/06 03:34:46;;;;;;;6.50;2.28;;;7.60;99.90;;;6.81;100.00;102169.34;4185836;28;20021;-80
2023/10/06 03:36:51;;;;;;;3.67;2.08;;;7.60;99.90;;;6.76;100.00;102160.91;4185247;28;20036;-81
2023/10/06 03:38:57;;;;;;;7.43;2.50;;;7.60;99.90;;;6.77;100.00;102163.44;4184253;28;20082;-81
2023/10/06 03:43:04;;;;;;;6.57;3.60;;;7.60;99.90;;;6.79;100.00;102166.81;4185370;28;20017;-80
2023/10/06 03:45:18;;;;;;;5.05;2.22;;;7.60;99.90;;;6.80;100.00;102168.50;4185159;28;20025;-80
2023/10/06 03:47:20;;;;;;;4.53;2.40;;;7.60;99.90;;;6.76;100.00;102160.91;4184732;28;20025;-80
2023/10/06 03:49:21;;;;;;;4.45;2.55;;;7.60;99.90;;;6.77;100.00;102167.84;4184162;28;20112;-80
2023/10/06 03:51:22;;;;;;;5.82;2.63;;;7.60;99.90;;;6.75;100.00;102165.31;4183968;28;20484;-80
2023/10/06 03:53:24;;;;;;;3.30;2.28;;;7.60;99.90;;;6.74;100.00;102170.66;4185038;28;20041;-80
2023/10/06 03:55:25;;;;;;;5.28;2.13;;;7.60;99.90;;;6.69;100.00;102166.53;4184923;28;20099;-81
2023/10/06 03:57:27;;;;;;;5.63;2.35;;;7.50;99.90;;;6.65;100.00;102165.06;4185321;28;20028;-80
2023/10/06 03:59:28;;;;;;;4.60;2.78;;;7.50;99.90;;;6.64;100.00;102162.53;4185033;28;20370;-80
2023/10/06 04:01:31;;;;;;;5.10;2.30;;;7.50;99.90;;;6.66;100.00;102171.97;4183314;28;20032;-80
2023/10/06 04:03:33;;;;;;;7.05;3.58;;;7.50;99.90;;;6.69;100.00;102171.78;4183723;28;20025;-80
2023/10/06 04:05:37;;;;;;;7.82;3.10;;;7.50;99.90;;;6.73;100.00;102180.31;4187851;28;20032;-80
2023/10/06 04:07:40;;;;;;;5.85;2.28;;;7.50;99.90;;;6.75;100.00;102181.03;4200256;28;20479;-80
2023/10/06 04:09:41;;;;;;;4.47;2.78;;;7.60;99.90;;;6.74;100.00;102183.78;4184879;28;20064;-80
2023/10/06 04:11:43;;;;;;;4.28;2.13;;;7.60;99.90;;;6.69;100.00;102177.03;4183593;28;20496;-80
2023/10/06 04:13:44;;;;;;;5.25;2.50;;;7.50;99.90;;;6.63;100.00;102180.03;4184964;28;20032;-80
2023/10/06 04:15:49;;;;;;;3.42;2.20;;;7.50;99.90;;;6.62;100.00;102181.00;4174172;28;20036;-80
2023/10/06 04:17:49;;;;;;;5.80;2.72;;;7.50;99.90;;;6.63;100.00;102184.47;4183647;28;20040;-80
2023/10/06 04:19:51;;;;;;;6.93;2.45;;;7.50;99.90;;;6.62;100.00;102180.16;4183460;28;20509;-80
2023/10/06 04:21:52;;;;;;;5.03;2.42;;;7.50;99.90;;;6.58;100.00;102184.72;4184894;28;20025;-80
2023/10/06 04:23:53;;;;;;;5.22;2.65;;;7.40;99.90;;;6.59;100.00;102190.81;4200174;28;20139;-80
2023/10/06 04:25:56;;;;;;;4.65;2.42;;;7.40;99.90;;;6.62;100.00;102186.22;4194202;28;20032;-80
2023/10/06 04:27:57;;;;;;;4.03;2.13;;;7.50;99.90;;;6.61;100.00;102184.53;4183667;28;20029;-80
2023/10/06 04:29:58;;;;;;;4.95;2.67;;;7.40;99.90;;;6.60;100.00;102188.09;4195957;28;20044;-80
2023/10/06 04:32:00;;;;;;;5.60;2.35;;;7.40;99.90;;;6.53;100.00;102176.31;4184493;28;20025;-80
2023/10/06 04:34:01;;;;;;;4.32;2.10;;;7.40;99.90;;;6.55;100.00;102181.44;4183477;28;20037;-80
2023/10/06 04:36:08;;;;;;;4.85;2.42;;;7.40;99.90;;;6.53;100.00;102184.19;4194831;28;20028;-80
2023/10/06 04:38:12;;;;;;;7.07;2.50;;;7.40;99.90;;;6.46;100.00;102179.41;4184809;28;20140;-80
2023/10/06 04:40:17;;;;;;;5.07;2.40;;;7.30;99.90;;;6.44;100.00;102183.91;4183373;28;20486;-80
2023/10/06 04:42:18;;;;;;;5.53;2.53;;;7.30;99.90;;;6.43;100.00;102184.81;4199822;28;20060;-80
2023/10/06 04:44:19;;;;;;;5.10;2.42;;;7.30;99.90;;;6.45;100.00;102181.16;4185368;28;20496;-80
2023/10/06 04:46:20;;;;;;;4.43;2.45;;;7.30;99.90;;;6.43;100.00;102185.69;4184586;28;20021;-80
2023/10/06 04:48:21;;;;;;;4.65;2.20;;;7.30;99.90;;;6.39;100.00;102184.16;4187653;28;20025;-80
2023/10/06 04:50:22;;;;;;;5.85;2.70;;;7.30;99.90;;;6.39;100.00;102188.59;4186363;28;20060;-80
2023/10/06 04:52:23;;;;;;;8.13;3.53;;;7.20;99.90;;;6.39;100.00;102188.59;4186255;28;20040;-80
2023/10/06 04:54:26;;;;;;;6.20;2.85;;;7.20;99.90;;;6.38;100.00;102187.75;4187778;28;20025;-80
2023/10/06 04:56:32;;;;;;;6.68;2.70;;;7.20;99.90;;;6.40;100.00;102185.84;4187521;28;20036;-80
2023/10/06 04:58:36;;;;;;;6.85;2.63;;;7.20;99.90;;;6.42;100.00;102178.75;4187324;28;20051;-80
2023/10/06 05:00:37;;;;;;;4.22;2.50;;;7.20;99.90;;;6.44;100.00;102181.28;4185970;28;20500;-81
2023/10/06 05:02:42;;;;;;;4.03;2.40;;;7.20;99.90;;;6.42;100.00;102183.97;4186246;28;20401;-80
2023/10/06 05:04:43;;;;;;;5.03;2.60;;;7.30;99.90;;;6.41;100.00;102197.19;4202361;28;20025;-80
2023/10/06 05:06:44;;;;;;;4.40;2.55;;;7.30;99.90;;;6.43;100.00;102188.28;4186186;28;20052;-80
2023/10/06 05:08:46;;;;;;;4.40;2.20;;;7.20;99.90;;;6.44;100.00;102189.13;4187281;28;20051;-80
2023/10/06 05:10:49;;;;;;;3.97;1.90;;;7.30;99.90;;;6.41;100.00;102192.78;4186128;28;20079;-80
2023/10/06 05:12:50;;;;;;;4.78;2.55;;;7.20;99.90;;;6.38;100.00;102186.91;4185999;28;20017;-80
2023/10/06 05:14:52;;;;;;;3.58;2.17;;;7.20;99.90;;;6.37;100.00;102193.06;4187091;28;20057;-80
2023/10/06 05:16:53;;;;;;;6.55;2.53;;;7.30;99.90;;;6.38;100.00;102198.22;4205834;28;20256;-80
2023/10/06 05:18:54;;;;;;;6.72;2.53;;;7.20;99.90;;;6.36;100.00;102188.78;4196794;28;20470;-81
2023/10/06 05:20:55;;;;;;;5.15;2.60;;;7.20;99.90;;;6.33;100.00;102196.81;4187108;28;20095;-80
2023/10/06 05:23:07;;;;;;;6.70;2.40;;;7.20;99.90;;;6.29;100.00;102197.94;4185823;28;20028;-80
2023/10/06 05:25:12;;;;;;;4.25;2.30;;;7.10;99.90;;;6.24;100.00;102190.38;4201563;28;20029;-80
2023/10/06 05:27:13;;;;;;;5.78;2.42;;;7.10;99.90;;;6.25;100.00;102192.03;4177935;28;20025;-81
2023/10/06 05:29:14;;;;;;;4.85;2.65;;;7.10;99.90;;;6.26;100.00;102193.72;4203559;28;20031;-80
2023/10/06 05:31:16;;;;;;;3.33;2.00;;;7.10;99.90;;;6.25;100.00;102180.69;4201774;28;20028;-80
2023/10/06 05:33:16;;;;;;;3.90;2.28;;;7.10;99.90;;;6.28;100.00;102185.75;4202148;28;20032;-80
2023/10/06 05:35:20;;;;;;;5.03;2.17;;;7.10;99.90;;;6.30;100.00;102189.97;4202195;28;20488;-80
2023/10/06 05:37:21;;;;;;;7.75;2.03;;;7.10;99.90;;;6.27;100.00;102190.19;4186968;28;20016;-80
2023/10/06 05:39:23;;;;;;;5.07;2.40;;;7.10;99.90;;;6.27;100.00;102192.81;4186491;28;20083;-80
2023/10/06 05:41:33;;;;;;;6.07;2.55;;;7.10;99.90;;;6.23;100.00;102188.69;4187037;28;20029;-80
2023/10/06 05:43:34;;;;;;;5.20;2.53;;;7.10;99.90;;;6.16;100.00;102189.97;4185643;28;20399;-81
2023/10/06 05:45:35;;;;;;;5.93;2.38;;;7.00;99.90;;;6.12;100.00;102183.25;4201898;28;20032;-80
2023/10/06 05:47:37;;;;;;;3.95;2.50;;;7.00;99.90;;;6.09;100.00;102188.66;4186549;28;20028;-81
2023/10/06 05:49:45;;;;;;;4.35;2.50;;;7.00;99.90;;;6.06;100.00;102191.47;4186390;28;20029;-81
2023/10/06 05:51:46;;;;;;;4.85;2.95;;;7.00;99.90;;;6.07;100.00;102193.13;4192669;28;20075;-80
2023/10/06 05:53:48;;;;;;;3.88;2.20;;;6.90;99.90;;;6.06;100.00;102191.47;4186433;28;20025;-80
2023/10/06 05:55:52;;;;;;;4.90;2.17;;;6.90;99.90;;;6.07;100.00;102203.63;4186623;28;20025;-80
2023/10/06 05:57:55;;;;;;;5.22;2.33;;;6.90;99.90;;;6.05;100.00;102195.00;4184670;28;20100;-80
2023/10/06 05:59:56;;;;;;;4.13;2.38;;;6.90;99.90;;;6.07;100.00;102187.91;4186185;28;20503;-80
2023/10/06 06:02:00;;;;;;;3.72;2.60;;;6.90;99.90;;;6.04;100.00;102186.31;4186060;28;20021;-80
2023/10/06 06:04:09;;;;;;;4.10;2.25;;;6.90;99.90;;;6.06;100.00;102191.47;4189004;28;20056;-80
2023/10/06 06:06:10;;;;;;;3.85;2.13;;;6.90;99.90;;;6.03;100.00;102192.47;4201951;28;20051;-80
2023/10/06 06:08:10;;;;;;;7.00;2.50;;;6.90;99.90;;;6.04;100.00;102198.56;4201696;28;20025;-80
2023/10/06 06:10:13;;;;;;;3.80;2.30;;;6.90;99.90;;;6.02;100.00;102195.19;4202676;28;20029;-80
2023/10/06 06:12:14;;;;;;;4.40;2.45;;;6.90;99.90;;;6.05;100.00;102197.63;4200836;28;20067;-80
2023/10/06 06:14:15;;;;;;;4.35;2.25;;;6.90;99.90;;;6.04;100.00;102206.41;4189277;28;20029;-81
2023/10/06 06:16:16;;;;;;;5.65;2.60;;;6.90;99.90;;;6.04;100.00;102207.25;4184592;28;20068;-80
2023/10/06 06:18:17;;;;;;;7.07;3.45;;;6.90;99.90;;;6.03;100.00;102212.63;4186127;28;20029;-80
2023/10/06 06:20:21;;;;;;;4.75;2.55;;;6.90;99.90;;;6.03;100.00;102215.22;4185095;28;20025;-80
2023/10/06 06:22:24;;;;;;;4.55;2.35;;;6.90;99.90;;;6.02;100.00;102218.78;4185070;28;20021;-80
2023/10/06 06:24:25;;;;;;;6.18;2.30;;;6.90;99.90;;;6.01;100.00;102220.53;4187343;28;20025;-80
2023/10/06 06:26:26;;;;;;;4.82;2.13;;;6.90;99.90;;;6.02;100.00;102218.78;4187059;28;20028;-80
2023/10/06 06:28:27;;;;;;;6.03;3.17;;;6.80;99.90;;;6.04;100.00;102222.97;4184981;28;20017;-80
2023/10/06 06:30:32;;;;;;;5.43;2.42;;;6.90;99.90;;;6.07;100.00;102224.56;4201235;28;20028;-80
2023/10/06 06:32:33;;;;;;;6.45;3.05;;;6.90;99.90;;;6.07;100.00;102230.66;4186106;28;20025;-80
2023/10/06 06:34:34;;;;;;;5.63;2.70;;;6.90;99.90;;;6.05;100.00;102229.91;4187057;28;20023;-80
2023/10/06 06:36:35;;;;;;;5.93;2.63;;;6.90;99.90;;;6.03;100.00;102228.31;4196420;28;20050;-80
2023/10/06 06:38:39;;;;;;;6.55;2.20;;;6.90;99.90;;;6.04;100.00;102230.84;4202481;28;20051;-80
2023/10/06 06:40:40;;;;;;;6.75;2.40;;;6.90;99.90;;;6.03;100.00;102223.09;4201177;28;20048;-81
2023/10/06 06:42:41;;;;;;;2.97;2.28;;;6.90;99.90;;;6.09;100.00;102235.81;4200939;28;20028;-80
2023/10/06 06:44:47;;;;;;;4.25;2.08;;;6.90;99.90;;;6.13;100.00;102234.69;4217742;28;20020;-80
2023/10/06 06:46:48;;;;;;;5.53;2.60;;;7.00;99.90;;;6.15;100.00;102227.59;4191970;28;20052;-79
2023/10/06 06:48:49;;;;;;;4.57;2.33;;;7.00;99.90;;;6.15;100.00;102238.09;4185723;28;20043;-80
2023/10/06 06:50:52;;;;;;;3.95;2.40;;;7.00;99.90;;;6.13;100.00;102234.69;4200763;28;20021;-80
2023/10/06 06:52:54;;;;;;;6.22;3.17;;;7.00;99.90;;;6.17;100.00;102240.59;4184650;28;20551;-80
2023/10/06 06:54:55;;;;;;;5.93;2.00;;;7.00;99.90;;;6.20;100.00;102243.88;4190499;28;20050;-80
2023/10/06 06:56:56;;;;;;;5.05;2.13;;;7.00;99.90;;;6.24;100.00;102239.31;4188786;28;20111;-80
2023/10/06 06:58:59;;;;;;;4.20;2.60;;;7.10;99.90;;;6.24;100.00;102231.44;4184414;28;20040;-80
2023/10/06 07:01:04;;;;;;;5.50;2.78;;;7.10;99.90;;;6.31;100.00;102248.47;4185384;28;20051;-80
2023/10/06 07:03:06;;;;;;;5.78;2.85;;;7.10;99.90;;;6.38;100.00;102248.03;4185574;28;20389;-80
2023/10/06 07:05:07;;;;;;;4.70;2.38;;;7.20;99.90;;;6.43;100.00;102253.81;4191150;28;20058;-80
2023/10/06 07:07:08;;;;;;;4.10;2.65;;;7.20;99.90;;;6.49;100.00;102247.34;4185588;28;20028;-80
2023/10/06 07:09:12;;;;;;;6.15;3.28;;;7.30;99.90;;;6.59;100.00;102248.50;4167451;28;20481;-80
2023/10/06 07:11:13;;;;;;;;;;;7.40;99.90;;;6.62;100.00;102253.56;4185852;28;20025;-80
2023/10/06 07:13:14;;;;;;;3.97;2.30;;;7.40;99.90;;;6.69;100.00;102249.59;4185297;28;19912;-80
2023/10/06 07:15:17;;;;;;;6.18;2.65;;;7.50;99.90;;;6.77;100.00;102251.78;4188541;28;20467;-80
2023/10/06 07:17:18;;;;;;;5.28;2.40;;;7.60;99.90;;;6.83;100.00;102254.00;4207545;28;20020;-80
2023/10/06 07:19:19;;;;;;;4.93;2.67;;;7.60;99.90;;;6.83;100.00;102252.25;4201787;28;20032;-80
2023/10/06 07:21:22;;;;;;;4.03;2.90;;;7.70;99.90;;;6.94;100.00;102259.44;4200660;28;20039;-80
2023/10/06 07:23:23;;;;;;;8.98;3.10;;;7.70;99.90;;;7.02;100.00;102251.91;4202310;28;20025;-79
2023/10/06 07:25:26;;;;;;;8.55;2.60;;;7.80;99.90;;;7.09;100.00;102253.22;4195248;28;20035;-80
2023/10/06 07:27:34;;;;;;;5.90;2.60;;;7.90;99.90;;;7.16;100.00;102255.38;4167372;28;20079;-80
2023/10/06 07:29:34;;;;;;;5.15;2.28;;;8.00;99.90;;;7.20;100.00;102250.75;4185152;28;20043;-80
2023/10/06 07:31:35;;;;;;;4.10;2.35;;;8.10;99.90;;;7.28;100.00;102258.16;4183867;28;20029;-80
2023/10/06 07:33:37;;;;;;;5.05;2.85;;;8.10;99.90;;;7.34;100.00;102250.72;4200882;28;20020;-80
2023/10/06 07:35:43;;;;;;;3.10;2.00;;;8.20;99.90;;;7.37;100.00;102255.78;4192558;28;20024;-80
2023/10/06 07:37:49;;;;;;;4.68;2.20;;;8.20;99.90;;;7.42;100.00;102263.34;4185099;28;20025;-80
2023/10/06 07:39:50;;;;;;;5.97;2.47;;;8.20;99.90;;;7.37;100.00;102255.78;4183732;28;20116;-80
2023/10/06 07:41:51;;;;;;;3.30;2.38;;;8.20;99.90;;;7.39;100.00;102267.03;4183941;28;20048;-80
2023/10/06 07:43:52;;;;;;;6.38;2.92;;;8.20;99.90;;;7.43;100.00;102260.66;4200536;28;20021;-80
2023/10/06 07:45:53;;;;;;;4.35;2.47;;;8.30;99.90;;;7.49;100.00;102262.03;4196531;28;20021;-80
2023/10/06 07:47:54;;;;;;;4.85;2.25;;;8.30;99.90;;;7.55;100.00;102262.47;4185259;28;20025;-80
2023/10/06 07:49:55;;;;;;;4.10;2.25;;;8.40;99.90;;;7.57;100.00;102260.59;4189078;28;20057;-79
2023/10/06 07:51:56;;;;;;;6.30;2.83;;;8.50;99.90;;;7.65;100.00;102265.31;4188129;28;20029;-79
2023/10/06 07:53:59;;;;;;;5.47;3.10;;;8.50;99.90;;;7.70;100.00;102260.63;4184489;28;20040;-80
2023/10/06 07:56:06;;;;;;;4.80;3.33;;;8.60;99.90;;;7.79;100.00;102268.72;4196399;28;20035;-80
2023/10/06 07:58:08;;;;;;;7.28;4.05;;;8.60;99.90;;;7.90;100.00;102272.44;4198313;28;20063;-79
2023/10/06 08:00:38;;;;;;;8.43;3.83;;;8.70;99.90;;;7.97;100.00;102264.06;4199171;28;20028;-81
2023/10/06 08:02:39;;;;;;;11.57;4.95;;;8.80;99.90;;;8.10;100.00;102272.81;4196363;28;20044;-81
2023/10/06 08:04:40;;;;;;;8.50;4.00;;;8.90;99.90;;;8.22;100.00;102276.38;4198364;28;20016;-81
2023/10/06 08:06:41;;;;;;;5.18;3.28;;;9.00;99.90;;;8.27;100.00;102272.53;4198215;28;20028;-81
2023/10/06 08:08:42;;;;;;;6.90;3.70;;;9.10;99.90;;;8.39;100.00;102283.19;4199442;28;20013;-81
2023/10/06 08:10:43;;;;;;;7.20;3.30;;;9.20;99.90;;;8.46;100.00;102285.28;4217070;28;20021;-82
2023/10/06 08:12:47;;;;;;;6.55;4.22;;;9.30;99.90;;;8.53;100.00;102289.19;4201469;28;20099;-81
2023/10/06 08:14:47;;;;;;;7.20;3.40;;;9.40;99.90;;;8.61;100.00;102294.75;4200241;28;20404;-81
2023/10/06 08:16:49;;;;;;;5.47;3.60;;;9.50;99.90;;;8.69;100.00;102287.16;4194185;28;20037;-81
2023/10/06 08:18:50;;;;;;;5.78;2.95;;;9.50;99.90;;;8.77;100.00;102298.03;4184890;28;20499;-81
2023/10/06 08:20:53;;;;;;;4.93;3.42;;;9.60;99.90;;;8.82;100.00;102298.53;4187045;28;20028;-79
2023/10/06 08:22:54;;;;;;;7.07;3.67;;;9.70;99.90;;;8.90;100.00;102290.94;4201577;28;20486;-79
2023/10/06 08:24:55;;;;;;;7.55;4.18;;;9.70;99.90;;;9.02;100.00;102301.56;4203024;28;20029;-79
2023/10/06 08:26:57;;;;;;;6.50;3.17;;;9.80;99.90;;;9.07;100.00;102288.91;4202928;28;20020;-81
2023/10/06 08:28:57;;;;;;;7.20;4.10;;;9.90;99.90;;;9.17;100.00;102301.31;4201294;28;20084;-80
2023/10/06 08:31:03;;;;;;;6.88;3.90;;;10.00;99.90;;;9.25;100.00;102299.00;4201469;28;20048;-79
2023/10/06 08:33:08;;;;;;;8.02;4.43;;;10.10;99.90;;;9.35;100.00;102302.63;4201549;28;20032;-81
2023/10/06 08:35:13;;;;;;;9.68;4.30;;;10.20;99.90;;;9.46;100.00;102301.88;4202744;28;20098;-80
2023/10/06 08:37:14;;;;;;;;;;;10.30;99.90;;;9.52;100.00;102301.44;4202983;28;20039;-80
2023/10/06 08:39:16;;;;;;;7.55;4.72;;;10.40;99.90;;;9.64;100.00;102305.81;4202440;28;19927;-80
2023/10/06 08:41:28;;;;;;;10.18;5.82;;;10.40;99.90;;;9.69;100.00;102298.41;4203158;28;20032;-80
2023/10/06 08:43:31;;;;;;;9.90;5.45;;;10.60;99.90;;;9.83;100.00;102306.13;4201401;28;20021;-80
2023/10/06 08:45:32;;;;;;;9.82;5.10;;;10.70;99.90;;;9.96;100.00;102313.97;4202836;28;20216;-81